Time;durP1;ratioP1;P1;durP2;ratioP2;P2;SDS_P1;SDS_P2;PMS_P1;PMS_P2;Temp;Humidity;BMP_temperature;BMP_pressure;BME280_temperature;BME280_humidity;BME280_pressure;Samples;Min_cycle;Max_cycle;Signal;HPM_P1;HPM_P2
2023/12/05 00:02:21;;;;;;;19.77;11.07;;;;;;;;;;5054523;28;20236;-58
2023/12/05 00:04:50;;;;;;;19.37;9.97;;;;;;;;;;5066009;28;20565;-59
2023/12/05 00:07:19;;;;;;;17.67;9.67;;;;;;;;;;5057914;28;20209;-58
2023/12/05 00:09:46;;;;;;;18.90;9.47;;;;;;;;;;5044102;28;20211;-58
2023/12/05 00:12:13;;;;;;;21.60;10.47;;;;;;;;;;5063834;28;20960;-59
2023/12/05 00:14:40;;;;;;;19.70;10.37;;;;;;;;;;5066161;28;20213;-59
2023/12/05 00:17:08;;;;;;;20.43;10.47;;;;;;;;;;5066226;28;20209;-60
2023/12/05 00:19:35;;;;;;;18.73;9.53;;;;;;;;;;5058600;28;20227;-59
2023/12/05 00:22:03;;;;;;;20.87;11.50;;;;;;;;;;5044448;28;20236;-59
2023/12/05 00:24:30;;;;;;;23.00;10.70;;;;;;;;;;5050430;28;20661;-59
2023/12/05 00:26:57;;;;;;;22.50;10.60;;;;;;;;;;5054099;28;21961;-59
2023/12/05 00:29:24;;;;;;;22.47;11.00;;;;;;;;;;5044803;28;20249;-59
2023/12/05 00:31:52;;;;;;;18.50;10.60;;;;;;;;;;5046451;28;20702;-59
2023/12/05 00:34:19;;;;;;;18.40;9.77;;;;;;;;;;5044873;28;20221;-59
2023/12/05 00:36:46;;;;;;;21.17;10.50;;;;;;;;;;5044869;28;20217;-59
2023/12/05 00:39:15;;;;;;;20.30;10.40;;;;;;;;;;5047822;28;20240;-59
2023/12/05 00:41:42;;;;;;;21.80;10.80;;;;;;;;;;5065595;28;20263;-59
2023/12/05 00:44:09;;;;;;;24.17;10.47;;;;;;;;;;5066244;28;20879;-60
2023/12/05 00:46:36;;;;;;;21.37;11.50;;;;;;;;;;5066545;28;20215;-59
2023/12/05 00:49:03;;;;;;;20.33;11.27;;;;;;;;;;5064745;28;20209;-59
2023/12/05 00:51:30;;;;;;;13.00;7.53;;;;;;;;;;5063612;28;20307;-59
2023/12/05 00:53:57;;;;;;;23.50;11.90;;;;;;;;;;5046545;28;20224;-59
2023/12/05 00:56:26;;;;;;;22.53;11.87;;;;;;;;;;5046259;28;20207;-59
2023/12/05 00:58:53;;;;;;;16.77;9.83;;;;;;;;;;5044635;28;20216;-59
2023/12/05 01:01:20;;;;;;;20.90;11.03;;;;;;;;;;5046276;28;20241;-59
2023/12/05 01:03:47;;;;;;;23.70;11.70;;;;;;;;;;5046861;28;20244;-59
2023/12/05 01:06:14;;;;;;;22.53;12.10;;;;;;;;;;5051269;28;20576;-59
2023/12/05 01:08:41;;;;;;;20.80;11.93;;;;;;;;;;5058360;28;20217;-58
2023/12/05 01:11:08;;;;;;;19.77;10.60;;;;;;;;;;5063822;28;20217;-58
2023/12/05 01:13:36;;;;;;;21.47;11.13;;;;;;;;;;5049914;28;20566;-59
2023/12/05 01:16:04;;;;;;;19.30;10.63;;;;;;;;;;5056511;28;20723;-58
2023/12/05 01:18:31;;;;;;;20.43;11.03;;;;;;;;;;5044962;28;20202;-59
2023/12/05 01:20:58;;;;;;;25.03;11.53;;;;;;;;;;5052306;28;20231;-59
2023/12/05 01:23:25;;;;;;;20.07;10.53;;;;;;;;;;5067091;28;20218;-59
2023/12/05 01:25:52;;;;;;;20.03;10.97;;;;;;;;;;5058534;28;20271;-59
2023/12/05 01:28:19;;;;;;;18.73;10.77;;;;;;;;;;5047890;28;20246;-59
2023/12/05 01:30:47;;;;;;;20.07;11.07;;;;;;;;;;5049897;28;20246;-59
2023/12/05 01:33:14;;;;;;;20.97;11.53;;;;;;;;;;5050756;28;20229;-59
2023/12/05 01:35:41;;;;;;;22.33;10.80;;;;;;;;;;5057637;28;20209;-59
2023/12/05 01:38:08;;;;;;;20.10;11.20;;;;;;;;;;5050005;28;20218;-59
2023/12/05 01:40:35;;;;;;;24.13;12.27;;;;;;;;;;5062678;28;20206;-58
2023/12/05 01:43:02;;;;;;;21.47;10.67;;;;;;;;;;5055555;28;20228;-59
2023/12/05 01:45:29;;;;;;;22.57;11.43;;;;;;;;;;5051004;28;20225;-59
2023/12/05 01:47:58;;;;;;;21.53;11.23;;;;;;;;;;5051259;28;20214;-59
2023/12/05 01:50:27;;;;;;;21.23;11.53;;;;;;;;;;5049717;28;20922;-59
2023/12/05 01:52:54;;;;;;;19.93;11.20;;;;;;;;;;5046099;28;20208;-59
2023/12/05 01:55:23;;;;;;;23.33;11.47;;;;;;;;;;5057959;28;20207;-59
2023/12/05 01:57:50;;;;;;;21.30;10.80;;;;;;;;;;5057431;28;20750;-59
2023/12/05 02:00:17;;;;;;;26.50;11.80;;;;;;;;;;5050615;28;20211;-59
2023/12/05 02:02:44;;;;;;;17.20;9.33;;;;;;;;;;5047704;28;20230;-59
2023/12/05 02:05:13;;;;;;;21.07;11.47;;;;;;;;;;5054600;28;20209;-59
2023/12/05 02:07:40;;;;;;;23.87;10.97;;;;;;;;;;5053561;28;20680;-59
2023/12/05 02:10:08;;;;;;;25.70;10.80;;;;;;;;;;5058902;28;20217;-59
2023/12/05 02:12:35;;;;;;;24.47;11.77;;;;;;;;;;5065538;28;20306;-59
2023/12/05 02:15:03;;;;;;;22.77;11.10;;;;;;;;;;5064938;28;20267;-59
2023/12/05 02:17:33;;;;;;;17.80;9.90;;;;;;;;;;5069032;28;20309;-59
2023/12/05 02:20:03;;;;;;;19.83;10.63;;;;;;;;;;5068707;28;20232;-59
2023/12/05 02:22:45;;;;;;;22.93;11.03;;;;;;;;;;5061628;28;20228;-58
2023/12/05 02:25:18;;;;;;;18.73;9.97;;;;;;;;;;5061264;28;20204;-59
2023/12/05 02:27:47;;;;;;;21.83;11.57;;;;;;;;;;5048237;28;20254;-59
2023/12/05 02:30:16;;;;;;;23.27;11.30;;;;;;;;;;5047469;28;20238;-59
2023/12/05 02:32:44;;;;;;;25.63;11.87;;;;;;;;;;5048253;28;20244;-59
2023/12/05 02:35:11;;;;;;;20.73;10.53;;;;;;;;;;5046972;28;20222;-60
2023/12/05 02:40:46;;;;;;;24.37;10.90;;;;;;;;;;5049349;28;20654;-59
2023/12/05 02:43:17;;;;;;;21.67;11.10;;;;;;;;;;5048101;28;20563;-59
2023/12/05 02:45:44;;;;;;;21.77;10.40;;;;;;;;;;5048971;28;20222;-59
2023/12/05 02:48:12;;;;;;;20.67;10.37;;;;;;;;;;5048889;28;20203;-59
2023/12/05 02:50:39;;;;;;;20.43;11.10;;;;;;;;;;5066020;28;20675;-59
2023/12/05 02:53:06;;;;;;;23.20;11.50;;;;;;;;;;5063390;28;20209;-58
2023/12/05 02:55:33;;;;;;;19.57;10.80;;;;;;;;;;5068679;28;20217;-59
2023/12/05 02:58:00;;;;;;;22.03;10.97;;;;;;;;;;5055119;28;20229;-58
2023/12/05 03:00:28;;;;;;;24.10;12.07;;;;;;;;;;5052651;28;20207;-59
2023/12/05 03:02:55;;;;;;;22.80;12.17;;;;;;;;;;5049843;28;20234;-59
2023/12/05 03:05:22;;;;;;;22.93;12.13;;;;;;;;;;5048798;28;20225;-59
2023/12/05 03:07:50;;;;;;;22.33;11.90;;;;;;;;;;5052995;28;20221;-59
2023/12/05 03:10:17;;;;;;;19.60;11.37;;;;;;;;;;5056611;28;20901;-59
2023/12/05 03:12:44;;;;;;;24.13;12.17;;;;;;;;;;5048701;28;20268;-59
2023/12/05 03:15:11;;;;;;;23.07;11.97;;;;;;;;;;5060399;28;20216;-59
2023/12/05 03:17:39;;;;;;;19.20;10.57;;;;;;;;;;5068369;28;20283;-59
2023/12/05 03:20:08;;;;;;;22.37;11.50;;;;;;;;;;5067505;28;20210;-59
2023/12/05 03:22:35;;;;;;;19.63;11.20;;;;;;;;;;5054750;28;20250;-59
2023/12/05 03:25:02;;;;;;;18.20;11.17;;;;;;;;;;5048054;28;20207;-59
2023/12/05 03:27:29;;;;;;;22.13;11.53;;;;;;;;;;5047503;28;20234;-59
2023/12/05 03:29:56;;;;;;;21.17;11.13;;;;;;;;;;5047829;28;20253;-59
2023/12/05 03:32:23;;;;;;;20.40;10.77;;;;;;;;;;5047667;28;20207;-59
2023/12/05 03:34:51;;;;;;;20.80;10.97;;;;;;;;;;5046915;28;20855;-58
2023/12/05 03:37:18;;;;;;;20.50;10.23;;;;;;;;;;5053668;28;20209;-59
2023/12/05 03:39:45;;;;;;;18.63;9.83;;;;;;;;;;5065287;28;20686;-59
2023/12/05 03:42:12;;;;;;;17.33;10.37;;;;;;;;;;5064531;28;20241;-59
2023/12/05 03:44:40;;;;;;;16.50;9.47;;;;;;;;;;5046819;28;20207;-60
2023/12/05 03:47:07;;;;;;;18.53;10.20;;;;;;;;;;5048095;28;20921;-59
2023/12/05 03:49:35;;;;;;;17.60;9.73;;;;;;;;;;5063675;28;20207;-58
2023/12/05 03:52:03;;;;;;;23.80;11.03;;;;;;;;;;5051861;28;20212;-59
2023/12/05 03:54:31;;;;;;;22.23;10.87;;;;;;;;;;5066706;28;20301;-59
2023/12/05 03:56:58;;;;;;;17.47;9.37;;;;;;;;;;5057616;28;20447;-59
2023/12/05 03:59:25;;;;;;;15.10;9.37;;;;;;;;;;5048472;28;20212;-59
2023/12/05 04:01:52;;;;;;;14.50;8.03;;;;;;;;;;5049921;28;20214;-59
2023/12/05 04:04:19;;;;;;;14.07;8.53;;;;;;;;;;5067143;28;20227;-59
2023/12/05 04:06:46;;;;;;;15.43;8.57;;;;;;;;;;5064284;28;20217;-59
2023/12/05 04:09:15;;;;;;;12.37;8.17;;;;;;;;;;5065076;28;20202;-59
2023/12/05 04:11:42;;;;;;;15.37;8.60;;;;;;;;;;5065520;28;20206;-59
2023/12/05 04:14:09;;;;;;;13.43;8.60;;;;;;;;;;5065215;28;20856;-60
2023/12/05 04:16:36;;;;;;;11.93;6.93;;;;;;;;;;5058017;28;20208;-59
2023/12/05 04:19:04;;;;;;;11.20;6.97;;;;;;;;;;5047218;28;20215;-59
2023/12/05 04:21:31;;;;;;;16.40;7.97;;;;;;;;;;5050302;28;20215;-59
2023/12/05 04:23:58;;;;;;;11.47;7.83;;;;;;;;;;5046894;28;20247;-59
2023/12/05 04:26:26;;;;;;;18.37;8.20;;;;;;;;;;5046824;28;20590;-59
2023/12/05 04:28:53;;;;;;;13.37;7.40;;;;;;;;;;5047919;28;20242;-59
2023/12/05 04:31:20;;;;;;;10.73;6.90;;;;;;;;;;5056005;28;20209;-60
2023/12/05 04:33:47;;;;;;;13.17;7.77;;;;;;;;;;5058510;28;20199;-59
2023/12/05 04:36:15;;;;;;;17.93;8.13;;;;;;;;;;5066674;28;20203;-59
2023/12/05 04:38:42;;;;;;;13.10;7.90;;;;;;;;;;5065584;28;20682;-59
2023/12/05 04:41:09;;;;;;;12.60;7.70;;;;;;;;;;5060069;28;20199;-59
2023/12/05 04:43:38;;;;;;;13.13;8.10;;;;;;;;;;5052780;28;20227;-60
2023/12/05 04:46:05;;;;;;;13.63;7.77;;;;;;;;;;5066451;28;20225;-60
2023/12/05 04:48:32;;;;;;;13.63;7.90;;;;;;;;;;5066499;28;20688;-58
2023/12/05 04:50:59;;;;;;;11.20;7.10;;;;;;;;;;5065028;28;20209;-59
2023/12/05 04:53:26;;;;;;;10.43;6.97;;;;;;;;;;5057099;28;20199;-59
2023/12/05 04:55:53;;;;;;;10.70;7.67;;;;;;;;;;5064270;28;20684;-59
2023/12/05 04:58:20;;;;;;;10.63;7.60;;;;;;;;;;5047413;28;20214;-59
2023/12/05 05:00:49;;;;;;;11.10;7.53;;;;;;;;;;5059147;28;20207;-60
2023/12/05 05:03:17;;;;;;;11.80;7.20;;;;;;;;;;5064012;28;20223;-59
2023/12/05 05:05:44;;;;;;;11.17;7.17;;;;;;;;;;5064694;28;20260;-59
2023/12/05 05:08:11;;;;;;;13.80;7.57;;;;;;;;;;5066095;28;20203;-59
2023/12/05 05:10:38;;;;;;;11.93;6.67;;;;;;;;;;5066108;28;20243;-59
2023/12/05 05:13:05;;;;;;;10.77;7.17;;;;;;;;;;5050650;28;20207;-60
2023/12/05 05:15:32;;;;;;;9.83;6.77;;;;;;;;;;5057023;28;20291;-57
2023/12/05 05:18:01;;;;;;;9.70;6.50;;;;;;;;;;5057344;28;20204;-57
2023/12/05 05:20:28;;;;;;;13.30;6.87;;;;;;;;;;5049607;28;20282;-58
2023/12/05 05:22:55;;;;;;;11.60;6.57;;;;;;;;;;5056796;28;20250;-57
2023/12/05 05:25:22;;;;;;;9.57;6.63;;;;;;;;;;5050643;28;20199;-57
2023/12/05 05:27:49;;;;;;;9.00;6.17;;;;;;;;;;5047091;28;20602;-57
2023/12/05 05:30:16;;;;;;;12.80;7.43;;;;;;;;;;5045793;28;20240;-58
2023/12/05 05:32:43;;;;;;;11.07;7.33;;;;;;;;;;5052989;28;20894;-57
2023/12/05 05:35:12;;;;;;;15.83;7.60;;;;;;;;;;5061466;28;20758;-58
2023/12/05 05:37:39;;;;;;;12.57;7.93;;;;;;;;;;5065710;28;20210;-58
2023/12/05 05:40:07;;;;;;;12.23;7.63;;;;;;;;;;5054733;28;20257;-59
2023/12/05 05:42:34;;;;;;;13.97;7.40;;;;;;;;;;5045156;28;20238;-58
2023/12/05 05:45:02;;;;;;;10.60;6.83;;;;;;;;;;5045350;28;20609;-59
2023/12/05 05:47:31;;;;;;;11.60;7.63;;;;;;;;;;5045501;28;20207;-58
2023/12/05 05:49:58;;;;;;;10.97;6.73;;;;;;;;;;5045814;28;20215;-58
2023/12/05 05:52:26;;;;;;;9.53;6.23;;;;;;;;;;5046741;28;20833;-58
2023/12/05 05:54:53;;;;;;;10.97;6.67;;;;;;;;;;5045215;28;20249;-58
2023/12/05 05:57:21;;;;;;;14.17;6.97;;;;;;;;;;5051996;28;20211;-58
2023/12/05 05:59:48;;;;;;;9.60;6.50;;;;;;;;;;5062318;28;20228;-58
2023/12/05 06:02:16;;;;;;;9.90;6.80;;;;;;;;;;5053056;28;20214;-58
2023/12/05 06:04:43;;;;;;;11.30;6.37;;;;;;;;;;5065229;28;20318;-58
2023/12/05 06:07:10;;;;;;;11.27;6.40;;;;;;;;;;5063911;28;20210;-58
2023/12/05 06:09:39;;;;;;;10.83;6.43;;;;;;;;;;5051145;28;20235;-58
2023/12/05 06:12:07;;;;;;;8.83;6.30;;;;;;;;;;5057627;28;20195;-59
2023/12/05 06:14:34;;;;;;;9.43;6.17;;;;;;;;;;5055928;28;20253;-59
2023/12/05 06:17:02;;;;;;;8.10;5.63;;;;;;;;;;5057447;28;20270;-58
2023/12/05 06:19:29;;;;;;;9.93;6.00;;;;;;;;;;5060002;28;20593;-58
2023/12/05 06:21:56;;;;;;;9.33;6.13;;;;;;;;;;5051821;28;20227;-59
2023/12/05 06:24:23;;;;;;;9.33;6.17;;;;;;;;;;5054008;28;20227;-59
2023/12/05 06:26:52;;;;;;;8.40;5.90;;;;;;;;;;5055581;28;20531;-59
2023/12/05 06:29:19;;;;;;;8.47;6.13;;;;;;;;;;5047827;28;20239;-60
2023/12/05 06:31:46;;;;;;;10.17;6.17;;;;;;;;;;5046729;28;20239;-59
2023/12/05 06:34:13;;;;;;;12.27;6.37;;;;;;;;;;5047568;28;20196;-59
2023/12/05 06:36:40;;;;;;;8.43;5.70;;;;;;;;;;5047575;28;20211;-59
2023/12/05 06:39:08;;;;;;;12.00;6.70;;;;;;;;;;5056502;28;20437;-57
2023/12/05 06:41:35;;;;;;;10.00;5.90;;;;;;;;;;5068390;28;20241;-58
2023/12/05 06:44:04;;;;;;;9.33;6.27;;;;;;;;;;5066138;28;20226;-59
2023/12/05 06:46:31;;;;;;;8.13;6.43;;;;;;;;;;5057218;28;20208;-59
2023/12/05 06:49:04;;;;;;;8.30;5.67;;;;;;;;;;5060539;28;20982;-59
2023/12/05 06:51:31;;;;;;;9.97;6.20;;;;;;;;;;5055926;28;20553;-58
2023/12/05 06:53:58;;;;;;;8.23;5.40;;;;;;;;;;5048445;28;20220;-58
2023/12/05 06:56:25;;;;;;;11.60;5.70;;;;;;;;;;5051509;28;20211;-59
2023/12/05 06:58:52;;;;;;;11.70;5.87;;;;;;;;;;5047648;28;20222;-59
2023/12/05 07:01:20;;;;;;;6.17;5.57;;;;;;;;;;5047607;28;20707;-59
2023/12/05 07:03:47;;;;;;;7.20;5.57;;;;;;;;;;5047565;28;20239;-59
2023/12/05 07:06:14;;;;;;;7.30;5.17;;;;;;;;;;5047674;28;20248;-58
2023/12/05 07:08:41;;;;;;;7.90;5.00;;;;;;;;;;5047380;28;20775;-58
2023/12/05 07:11:09;;;;;;;7.20;5.63;;;;;;;;;;5047698;28;20250;-59
2023/12/05 07:13:36;;;;;;;5.67;4.73;;;;;;;;;;5047538;28;20216;-58
2023/12/05 07:16:03;;;;;;;10.27;5.50;;;;;;;;;;5047548;28;20215;-57
2023/12/05 07:18:32;;;;;;;8.80;5.17;;;;;;;;;;5047380;28;20638;-58
2023/12/05 07:20:59;;;;;;;8.70;4.50;;;;;;;;;;5046985;28;20212;-58
2023/12/05 07:23:26;;;;;;;9.73;5.23;;;;;;;;;;5047326;28;20234;-59
2023/12/05 07:25:54;;;;;;;7.60;5.10;;;;;;;;;;5047283;28;20223;-59
2023/12/05 07:28:21;;;;;;;5.93;5.23;;;;;;;;;;5047165;28;20235;-58
2023/12/05 07:30:48;;;;;;;6.37;4.10;;;;;;;;;;5046894;28;20244;-59
2023/12/05 07:33:15;;;;;;;7.70;4.50;;;;;;;;;;5047089;28;20709;-58
2023/12/05 07:35:44;;;;;;;9.23;4.57;;;;;;;;;;5044664;28;20213;-58
2023/12/05 07:38:11;;;;;;;7.97;4.63;;;;;;;;;;5046367;28;20211;-58
2023/12/05 07:40:38;;;;;;;6.20;5.03;;;;;;;;;;5046197;28;20216;-58
2023/12/05 07:43:05;;;;;;;6.33;4.30;;;;;;;;;;5045923;28;20208;-59
2023/12/05 07:45:32;;;;;;;6.97;4.73;;;;;;;;;;5044280;28;20219;-59
2023/12/05 07:47:59;;;;;;;7.80;4.80;;;;;;;;;;5046216;28;20208;-59
2023/12/05 07:50:26;;;;;;;5.07;4.23;;;;;;;;;;5045940;28;20211;-59
2023/12/05 07:52:54;;;;;;;6.90;4.70;;;;;;;;;;5045676;28;20218;-60
2023/12/05 07:55:21;;;;;;;7.20;4.73;;;;;;;;;;5045689;28;20697;-59
2023/12/05 07:57:49;;;;;;;5.43;4.77;;;;;;;;;;5045553;28;20294;-59
2023/12/05 08:00:18;;;;;;;6.87;5.10;;;;;;;;;;5044114;28;20218;-60
2023/12/05 08:02:45;;;;;;;9.70;4.90;;;;;;;;;;5046147;28;20246;-60
2023/12/05 08:05:12;;;;;;;5.70;5.00;;;;;;;;;;5045853;28;20242;-57
2023/12/05 08:07:39;;;;;;;8.10;4.67;;;;;;;;;;5046374;28;20671;-60
2023/12/05 08:10:09;;;;;;;6.40;4.40;;;;;;;;;;5046289;28;20226;-61
2023/12/05 08:12:36;;;;;;;4.47;4.07;;;;;;;;;;5045809;28;20212;-58
2023/12/05 08:15:04;;;;;;;5.57;4.40;;;;;;;;;;5045682;28;20200;-58
2023/12/05 08:17:31;;;;;;;4.83;3.77;;;;;;;;;;5052686;28;20257;-58
2023/12/05 08:19:58;;;;;;;7.27;4.10;;;;;;;;;;5045653;28;20208;-58
2023/12/05 08:22:26;;;;;;;6.20;4.30;;;;;;;;;;5041395;28;20208;-58
2023/12/05 08:24:53;;;;;;;6.90;3.90;;;;;;;;;;5043466;28;20233;-59
2023/12/05 08:27:23;;;;;;;6.73;4.17;;;;;;;;;;5045343;28;20231;-57
2023/12/05 08:29:50;;;;;;;6.40;3.80;;;;;;;;;;5044341;28;20234;-59
2023/12/05 08:32:17;;;;;;;4.10;3.63;;;;;;;;;;5046445;28;20218;-61
2023/12/05 08:34:44;;;;;;;4.63;3.63;;;;;;;;;;5046121;28;20207;-61
2023/12/05 08:37:11;;;;;;;4.33;3.77;;;;;;;;;;5047075;28;20680;-61
2023/12/05 08:39:38;;;;;;;4.43;3.50;;;;;;;;;;5048561;28;20273;-60
2023/12/05 08:42:08;;;;;;;4.37;3.67;;;;;;;;;;5065836;28;20298;-61
2023/12/05 08:44:36;;;;;;;4.60;3.30;;;;;;;;;;5057849;28;20258;-59
2023/12/05 08:47:03;;;;;;;5.37;2.97;;;;;;;;;;5055976;28;20203;-58
2023/12/05 08:49:31;;;;;;;4.43;3.37;;;;;;;;;;5065652;28;20682;-59
2023/12/05 08:51:58;;;;;;;2.73;2.50;;;;;;;;;;5064483;28;20199;-58
2023/12/05 08:54:26;;;;;;;4.33;3.80;;;;;;;;;;5065794;28;20430;-58
2023/12/05 08:56:53;;;;;;;4.80;3.03;;;;;;;;;;5054409;28;20219;-59
2023/12/05 08:59:20;;;;;;;3.10;2.90;;;;;;;;;;5046595;28;20199;-58
2023/12/05 09:01:50;;;;;;;3.50;3.27;;;;;;;;;;5045404;28;20214;-59
2023/12/05 09:04:17;;;;;;;3.50;3.20;;;;;;;;;;5045261;28;20273;-58
2023/12/05 09:06:44;;;;;;;5.73;3.80;;;;;;;;;;5041978;28;20212;-59
2023/12/05 09:09:11;;;;;;;6.53;3.60;;;;;;;;;;5053341;28;20234;-59
2023/12/05 09:11:38;;;;;;;6.13;3.30;;;;;;;;;;5045338;28;20203;-59
2023/12/05 09:14:06;;;;;;;3.50;3.13;;;;;;;;;;5059023;28;20285;-62
2023/12/05 09:16:35;;;;;;;4.20;3.20;;;;;;;;;;5065308;28;20899;-58
2023/12/05 09:19:03;;;;;;;3.27;3.07;;;;;;;;;;5065566;28;20305;-58
2023/12/05 09:21:30;;;;;;;5.33;2.87;;;;;;;;;;5064941;28;20537;-59
2023/12/05 09:23:57;;;;;;;4.33;3.00;;;;;;;;;;5055341;28;20231;-58
2023/12/05 09:26:24;;;;;;;3.00;2.70;;;;;;;;;;5047282;28;20207;-59
2023/12/05 09:28:51;;;;;;;2.63;2.43;;;;;;;;;;5044799;28;20235;-59
2023/12/05 09:31:19;;;;;;;5.93;2.73;;;;;;;;;;5048436;28;20217;-59
2023/12/05 09:33:46;;;;;;;2.90;2.70;;;;;;;;;;5045759;28;20207;-59
2023/12/05 09:39:18;;;;;;;2.70;2.50;;;;;;;;;;5038322;28;20197;-58
2023/12/05 09:41:48;;;;;;;3.63;2.27;;;;;;;;;;5045392;28;20215;-58
2023/12/05 09:44:17;;;;;;;2.57;2.37;;;;;;;;;;5049007;28;20227;-58
2023/12/05 09:46:48;;;;;;;2.57;2.37;;;;;;;;;;5052588;28;20298;-58
2023/12/05 09:49:17;;;;;;;2.70;1.97;;;;;;;;;;5048813;28;20257;-58
2023/12/05 09:51:44;;;;;;;3.57;2.10;;;;;;;;;;5048878;28;20303;-58
2023/12/05 09:54:12;;;;;;;7.53;3.10;;;;;;;;;;5047143;28;20643;-59
2023/12/05 09:56:40;;;;;;;10.20;3.80;;;;;;;;;;5050403;28;20211;-59
2023/12/05 09:59:07;;;;;;;4.73;3.13;;;;;;;;;;5056077;28;20211;-59
2023/12/05 10:01:35;;;;;;;9.00;4.50;;;;;;;;;;5067228;28;20214;-59
2023/12/05 10:04:03;;;;;;;4.03;3.47;;;;;;;;;;5047855;28;20216;-59
2023/12/05 10:06:31;;;;;;;2.43;2.33;;;;;;;;;;5050950;28;20208;-59
2023/12/05 10:08:58;;;;;;;7.87;5.53;;;;;;;;;;5048023;28;20586;-60
2023/12/05 10:11:28;;;;;;;2.53;2.27;;;;;;;;;;5052890;28;20203;-65
2023/12/05 10:13:57;;;;;;;2.70;2.50;;;;;;;;;;5048843;28;20262;-59
2023/12/05 10:16:26;;;;;;;1.47;1.37;;;;;;;;;;5055529;28;20203;-60
2023/12/05 10:18:53;;;;;;;3.17;1.47;;;;;;;;;;5047981;28;20663;-59
2023/12/05 10:21:20;;;;;;;1.83;1.67;;;;;;;;;;5052514;28;20219;-59
2023/12/05 10:23:47;;;;;;;2.63;1.70;;;;;;;;;;5058709;28;20203;-59
2023/12/05 10:26:14;;;;;;;1.70;1.40;;;;;;;;;;5055813;28;20232;-59
2023/12/05 10:28:50;;;;;;;1.70;1.60;;;;;;;;;;5048424;28;20233;-59
2023/12/05 10:31:19;;;;;;;2.50;1.97;;;;;;;;;;5046037;28;20277;-59
2023/12/05 10:33:48;;;;;;;4.10;1.47;;;;;;;;;;5044490;28;20207;-60
2023/12/05 10:36:15;;;;;;;3.27;1.70;;;;;;;;;;5045785;28;20208;-60
2023/12/05 10:38:45;;;;;;;1.83;1.47;;;;;;;;;;5044941;28;20211;-59
2023/12/05 10:41:13;;;;;;;3.03;2.23;;;;;;;;;;5054564;28;20199;-59
2023/12/05 10:43:48;;;;;;;2.90;2.20;;;;;;;;;;5058879;28;20218;-59
2023/12/05 10:46:15;;;;;;;2.67;1.50;;;;;;;;;;5045204;28;20277;-59
2023/12/05 10:48:44;;;;;;;3.83;1.70;;;;;;;;;;5055523;28;20218;-59
2023/12/05 10:51:11;;;;;;;1.87;1.70;;;;;;;;;;5050534;28;20715;-59
2023/12/05 10:53:40;;;;;;;1.73;1.63;;;;;;;;;;5047675;28;20215;-60
2023/12/05 10:56:14;;;;;;;1.33;1.33;;;;;;;;;;5052761;28;20871;-60
2023/12/05 10:58:41;;;;;;;1.93;1.53;;;;;;;;;;5062529;28;20210;-60
2023/12/05 11:01:10;;;;;;;1.47;1.43;;;;;;;;;;5053945;28;20218;-60
2023/12/05 11:17:35;;;;;;;2.90;1.17;;;;;;;;;;5218746;22;20276;-59
2023/12/05 11:20:07;;;;;;;1.47;1.27;;;;;;;;;;5035180;28;20204;-59
2023/12/05 11:22:38;;;;;;;0.70;0.70;;;;;;;;;;5025299;28;20382;-60
2023/12/05 11:25:22;;;;;;;1.00;0.90;;;;;;;;;;5028505;28;20230;-60
2023/12/05 11:27:58;;;;;;;2.83;1.00;;;;;;;;;;5039394;28;20315;-60
2023/12/05 11:30:46;;;;;;;1.83;1.13;;;;;;;;;;5026991;28;20219;-61
2023/12/05 11:33:19;;;;;;;0.80;0.80;;;;;;;;;;5033424;28;20212;-61
2023/12/05 11:35:54;;;;;;;1.03;1.03;;;;;;;;;;5037131;28;20211;-60
2023/12/05 11:38:22;;;;;;;0.80;0.80;;;;;;;;;;5033267;28;20215;-60
2023/12/05 11:41:04;;;;;;;0.90;0.90;;;;;;;;;;5025880;28;20214;-60
2023/12/05 11:43:31;;;;;;;0.80;0.80;;;;;;;;;;5042403;28;20692;-60
2023/12/05 11:46:05;;;;;;;1.97;0.97;;;;;;;;;;5045304;28;20577;-60
2023/12/05 11:48:34;;;;;;;0.83;0.83;;;;;;;;;;5042473;28;20215;-60
2023/12/05 11:51:01;;;;;;;1.33;1.23;;;;;;;;;;5027349;28;20212;-60
2023/12/05 11:53:29;;;;;;;1.70;0.90;;;;;;;;;;5045178;28;20545;-60
2023/12/05 11:55:56;;;;;;;0.73;0.73;;;;;;;;;;5044947;28;20250;-60
2023/12/05 11:58:27;;;;;;;1.40;0.80;;;;;;;;;;5046142;28;20251;-60
2023/12/05 12:01:01;;;;;;;0.73;0.73;;;;;;;;;;5043909;28;20203;-60
2023/12/05 12:03:28;;;;;;;1.03;0.93;;;;;;;;;;5044855;28;20235;-60
2023/12/05 12:06:12;;;;;;;0.87;0.87;;;;;;;;;;5041176;28;20223;-61
2023/12/05 12:08:39;;;;;;;1.97;1.33;;;;;;;;;;5043821;28;20208;-59
2023/12/05 12:11:06;;;;;;;2.10;0.90;;;;;;;;;;5044325;28;20216;-59
2023/12/05 12:13:34;;;;;;;0.83;0.77;;;;;;;;;;5045402;28;20207;-60
2023/12/05 12:16:01;;;;;;;0.77;0.77;;;;;;;;;;5045070;28;20334;-59
2023/12/05 12:18:31;;;;;;;3.23;0.87;;;;;;;;;;5045395;28;20623;-59
2023/12/05 12:20:59;;;;;;;1.83;1.30;;;;;;;;;;5044875;28;20214;-59
2023/12/05 12:23:27;;;;;;;1.10;1.00;;;;;;;;;;5036304;28;20203;-59
2023/12/05 12:25:57;;;;;;;3.00;1.07;;;;;;;;;;5029785;28;20231;-60
2023/12/05 12:28:25;;;;;;;1.57;1.00;;;;;;;;;;5028701;28;20310;-60
2023/12/05 12:30:53;;;;;;;1.57;0.80;;;;;;;;;;5045192;28;20269;-59
2023/12/05 12:33:22;;;;;;;0.97;0.97;;;;;;;;;;5045466;28;20678;-60
2023/12/05 12:35:50;;;;;;;0.80;0.80;;;;;;;;;;5043173;28;20196;-61
2023/12/05 12:38:17;;;;;;;1.03;1.03;;;;;;;;;;5039762;28;20299;-59
2023/12/05 12:40:48;;;;;;;1.67;1.03;;;;;;;;;;5037407;28;20287;-59
2023/12/05 12:43:15;;;;;;;1.30;1.20;;;;;;;;;;5029380;28;20207;-59
2023/12/05 12:45:42;;;;;;;2.73;1.00;;;;;;;;;;5043335;28;20231;-61
2023/12/05 12:48:09;;;;;;;0.87;0.80;;;;;;;;;;5038038;28;20208;-62
2023/12/05 12:50:36;;;;;;;0.80;0.80;;;;;;;;;;5037386;28;20212;-61
2023/12/05 12:53:03;;;;;;;1.40;1.30;;;;;;;;;;5042513;28;20219;-60
2023/12/05 12:55:31;;;;;;;2.00;1.80;;;;;;;;;;5040007;28;20261;-60
2023/12/05 12:57:59;;;;;;;1.70;1.30;;;;;;;;;;5041297;28;20291;-60
2023/12/05 13:00:26;;;;;;;1.23;1.00;;;;;;;;;;5041407;28;20208;-60
2023/12/05 13:02:53;;;;;;;2.20;2.00;;;;;;;;;;5034086;28;20211;-61
2023/12/05 13:05:29;;;;;;;2.27;1.93;;;;;;;;;;5026184;28;20227;-60
2023/12/05 13:07:58;;;;;;;3.20;2.00;;;;;;;;;;5025164;28;20207;-60
2023/12/05 13:10:25;;;;;;;0.77;0.67;;;;;;;;;;5031267;28;20632;-59
2023/12/05 13:12:52;;;;;;;2.53;1.30;;;;;;;;;;5028895;28;20689;-60
2023/12/05 13:15:26;;;;;;;2.10;1.00;;;;;;;;;;5034409;28;20200;-61
2023/12/05 13:17:59;;;;;;;1.27;1.17;;;;;;;;;;5034869;28;20515;-60
2023/12/05 13:20:26;;;;;;;0.80;0.80;;;;;;;;;;5031958;28;20876;-60
2023/12/05 13:22:54;;;;;;;1.00;1.00;;;;;;;;;;5039612;28;20215;-60
2023/12/05 13:25:22;;;;;;;1.40;0.93;;;;;;;;;;5035606;28;20217;-60
2023/12/05 13:28:15;;;;;;;2.27;1.00;;;;;;;;;;5040037;28;22030;-60
2023/12/05 13:30:44;;;;;;;0.90;0.80;;;;;;;;;;5031042;28;20211;-60
2023/12/05 13:33:14;;;;;;;1.80;0.83;;;;;;;;;;5034175;28;20212;-61
2023/12/05 13:35:41;;;;;;;0.70;0.50;;;;;;;;;;5043839;28;20389;-60
2023/12/05 13:38:09;;;;;;;0.60;0.60;;;;;;;;;;5034542;28;20859;-60
2023/12/05 13:40:36;;;;;;;0.50;0.50;;;;;;;;;;5029011;28;20633;-61
2023/12/05 13:43:05;;;;;;;0.77;0.40;;;;;;;;;;5045895;28;20257;-60
2023/12/05 13:45:32;;;;;;;0.53;0.53;;;;;;;;;;5039050;28;20251;-60
2023/12/05 13:48:00;;;;;;;0.83;0.83;;;;;;;;;;5028964;28;20208;-60
2023/12/05 13:50:27;;;;;;;0.40;0.40;;;;;;;;;;5047740;28;20497;-60
2023/12/05 13:52:54;;;;;;;0.70;0.70;;;;;;;;;;5048847;28;20215;-60
2023/12/05 13:55:21;;;;;;;0.87;0.70;;;;;;;;;;5040188;28;20210;-61
2023/12/05 13:57:48;;;;;;;0.60;0.57;;;;;;;;;;5039745;28;20303;-60
2023/12/05 14:00:16;;;;;;;0.97;0.97;;;;;;;;;;5033077;28;21716;-60
2023/12/05 14:02:44;;;;;;;1.43;1.00;;;;;;;;;;5042447;28;20207;-60
2023/12/05 14:05:13;;;;;;;1.60;0.70;;;;;;;;;;5048644;28;20207;-60
2023/12/05 14:07:40;;;;;;;0.70;0.70;;;;;;;;;;5048704;28;20200;-60
2023/12/05 14:10:07;;;;;;;0.63;0.63;;;;;;;;;;5048597;28;20211;-60
2023/12/05 14:12:35;;;;;;;0.60;0.60;;;;;;;;;;5048455;28;20214;-60
2023/12/05 14:15:02;;;;;;;0.40;0.40;;;;;;;;;;5048615;28;20211;-60
2023/12/05 14:17:29;;;;;;;1.30;0.50;;;;;;;;;;5038847;28;20235;-60
2023/12/05 14:20:00;;;;;;;0.40;0.40;;;;;;;;;;5034224;28;20215;-59
2023/12/05 14:22:28;;;;;;;0.30;0.30;;;;;;;;;;5029365;28;20880;-61
2023/12/05 14:24:55;;;;;;;0.30;0.30;;;;;;;;;;5035007;28;20207;-60
2023/12/05 14:27:22;;;;;;;0.53;0.53;;;;;;;;;;5037014;28;20239;-60
2023/12/05 14:29:49;;;;;;;0.60;0.60;;;;;;;;;;5037120;28;20665;-59
2023/12/05 14:32:16;;;;;;;0.60;0.60;;;;;;;;;;5030114;28;20212;-60
2023/12/05 14:34:43;;;;;;;0.50;0.50;;;;;;;;;;5028258;28;20208;-59
2023/12/05 14:37:10;;;;;;;1.80;1.73;;;;;;;;;;5028534;28;20621;-59
2023/12/05 14:39:39;;;;;;;0.40;0.40;;;;;;;;;;5042370;28;20223;-60
2023/12/05 14:42:06;;;;;;;0.67;0.67;;;;;;;;;;5037620;28;20196;-59
2023/12/05 14:44:33;;;;;;;0.53;0.53;;;;;;;;;;5028303;28;20623;-59
2023/12/05 14:47:02;;;;;;;0.40;0.40;;;;;;;;;;5027952;28;20239;-62
2023/12/05 14:49:29;;;;;;;0.40;0.40;;;;;;;;;;5038877;28;20634;-59
2023/12/05 14:51:56;;;;;;;0.60;0.60;;;;;;;;;;5047642;28;20207;-60
2023/12/05 14:54:24;;;;;;;0.50;0.50;;;;;;;;;;5047305;28;20284;-59
2023/12/05 14:56:52;;;;;;;0.50;0.50;;;;;;;;;;5034348;28;20592;-61
2023/12/05 14:59:19;;;;;;;1.23;0.40;;;;;;;;;;5028020;28;20219;-60